Friday, October 19, 2018, 3:40 AM EDT
Back to Local

KEZF, Fredericksburg, Shannon Airport

Location: Fredericksburg, VA, United States Lat: 38.267
Local Time: 3:40 AM EDT ( 7:40 GMT) Lon: -77.45
Time Zone: US/Eastern Elev: 85 ft

Show me the last for .
Show Coded

Time T Td Feel RH Dir Speed Gust Alt SLP Vis Weather Sky Remarks
2018-10-19 03:15 39 39 - 100 - Calm - 30.38 - 10 CLR None
2018-10-19 02:55 39 39 - 100 - Calm - 30.38 - 10 CLR None
2018-10-19 02:35 39 39 - 100 - Calm - 30.38 - 10 CLR None
2018-10-19 02:15 39 39 - 100 - Calm - 30.39 - 10 CLR None
2018-10-19 01:55 39 39 - 100 - Calm - 30.38 - 10 CLR 6-hr Min Temp (2am): 38.8°F
6-hr Max Temp (2am): 46.0°F
24-hr Min Temp (2am): 38.8°F
24-hr Max Temp (2am): 59.5°F
2018-10-19 01:35 39 39 - 100 - Calm - 30.38 - 10 CLR None
2018-10-19 01:15 39 39 - 100 - Calm - 30.39 - 10 CLR None
2018-10-19 00:55 40 40 - 100 - Calm - 30.39 - 10 CLR None
2018-10-19 00:35 40 40 - 100 - Calm - 30.39 - 10 CLR None
2018-10-19 00:15 41 41 - 100 - Calm - 30.39 - 10 CLR None
2018-10-18 23:55 41 41 - 100 - Calm - 30.40 - 10 CLR None
2018-10-18 23:35 41 41 - 100 - Calm - 30.40 - 10 CLR None
2018-10-18 23:15 41 41 - 100 - Calm - 30.41 - 5 BR CLR None
2018-10-18 22:55 41 41 - 100 - Calm - 30.42 - 10 CLR None
2018-10-18 22:35 42 42 - 100 - Calm - 30.42 - 10 CLR None
2018-10-18 22:15 42 42 - 100 - Calm - 30.42 - 10 CLR None
2018-10-18 21:55 42 42 - 100 - Calm - 30.42 - 10 CLR None
2018-10-18 21:35 43 42 - 97 - Calm - 30.41 - 10 CLR None
2018-10-18 21:15 43 43 - 100 - Calm - 30.41 - 10 CLR None
2018-10-18 20:55 43 43 - 98 - Calm - 30.40 - 10 CLR None
2018-10-18 20:35 45 43 - 94 - Calm - 30.40 - 10 CLR None
2018-10-18 20:15 45 42 - 90 - Calm - 30.40 - 10 CLR None
2018-10-18 19:55 46 42 - 85 - Calm - 30.40 - 10 CLR 6-hr Min Temp (8pm): 45.5°F
6-hr Max Temp (8pm): 59.5°F
2018-10-18 19:35 46 42 - 87 - Calm - 30.40 - 10 CLR None
2018-10-18 19:15 47 43 - 83 - Calm - 30.39 - 10 CLR None
2018-10-18 18:55 50 44 - 81 - Calm - 30.39 - 10 CLR None
2018-10-18 18:35 51 44 - 76 - Calm - 30.39 - 10 CLR None
2018-10-18 18:15 55 43 - 65 - Calm - 30.38 - 10 CLR None
2018-10-18 17:55 56 37 - 47 - Calm - 30.38 - 10 CLR None
2018-10-18 17:35 57 35 - 43 - Calm - 30.38 - 10 CLR None
2018-10-18 17:15 58 37 - 44 330° 3 - 30.38 - 10 CLR None
2018-10-18 16:55 58 35 - 40 320° 5 - 30.38 - 10 CLR None
2018-10-18 16:35 59 35 - 40 300° 6 - 30.38 - 10 CLR None
2018-10-18 16:15 59 35 - 40 320° 5 - 30.38 - 10 CLR None
2018-10-18 15:55 59 35 - 40 290° 8 - 30.38 - 10 CLR None
2018-10-18 15:35 58 35 - 40 330° 3 - 30.39 - 10 CLR None
2018-10-18 15:15 59 35 - 40 330° 7 - 30.39 - 10 CLR None
2018-10-18 14:55 59 35 - 40 - Calm - 30.40 - 10 CLR None
2018-10-18 14:35 58 34 - 39 300° 9 - 30.40 - 10 CLR None
2018-10-18 14:15 58 32 - 38 350° 7 16 30.40 - 10 CLR None
2018-10-18 13:55 57 33 - 39 270° 8 - 30.42 - 10 CLR 6-hr Min Temp (2pm): 42.3°F
6-hr Max Temp (2pm): 57.4°F
2018-10-18 13:35 57 34 - 41 290° 6 - 30.43 - 10 CLR None
2018-10-18 13:15 57 33 - 40 300° 13 16 30.43 - 10 CLR None
2018-10-18 12:55 56 33 - 41 280° 5 - 30.44 - 10 CLR None
2018-10-18 12:30 55 33 - 42 290° 12 16 30.45 - 10 CLR None
2018-10-18 12:15 54 32 - 42 320° 7 - 30.46 - 10 CLR None
2018-10-18 11:55 54 33 - 45 320° 10 - 30.46 - 10 CLR None
2018-10-18 11:35 54 33 - 44 290° 14 18 30.46 - 10 CLR None
2018-10-18 11:15 53 33 - 46 330° 8 - 30.46 - 10 CLR None
2018-10-18 10:55 53 33 - 45 310° 9 - 30.47 - 10 CLR None
2018-10-18 10:30 53 32 - 44 320° 9 16 30.46 - 10 CLR None
2018-10-18 10:15 52 32 - 46 340° 9 17 30.46 - 10 CLR None
2018-10-18 09:55 51 33 - 48 320° 10 17 30.46 - 10 CLR None
2018-10-18 09:35 51 37 - 58 320° 8 16 30.46 - 10 CLR None
2018-10-18 09:15 50 37 - 59 350° 13 16 30.46 - 10 SCT049 None
2018-10-18 08:55 49 40 - 70 - Calm - 30.45 - 10 SCT049 None
2018-10-18 08:35 46 41 - 82 - Calm - 30.44 - 10 CLR None
2018-10-18 08:15 43 41 - 92 - Calm - 30.43 - 10 SCT050 None
2018-10-18 07:55 43 40 - 87 - Calm - 30.42 - 10 SCT050 6-hr Min Temp (8am): 42.3°F
6-hr Max Temp (8am): 52.0°F
2018-10-18 07:35 42 41 39 93 320° 6 - 30.40 - 10 SCT050 None
2018-10-18 07:15 42 40 - 91 - Calm - 30.40 - 10 SCT050 None
2018-10-18 06:55 43 39 - 86 - Calm - 30.39 - 10 BKN050 None
2018-10-18 06:35 43 40 40 90 310° 5 - 30.38 - 10 SCT050 None
2018-10-18 06:15 43 40 - 89 - Calm - 30.38 - 10 SCT050 None
2018-10-18 05:55 43 40 - 88 - Calm - 30.37 - 10 CLR None
2018-10-18 05:35 44 40 - 86 - Calm - 30.35 - 10 CLR None
2018-10-18 05:15 44 41 - 87 - Calm - 30.34 - 10 CLR None
2018-10-18 04:55 46 40 - 82 - Calm - 30.33 - 10 CLR None
2018-10-18 04:35 49 39 48 69 350° 3 - 30.33 - 10 CLR None
2018-10-18 04:15 47 40 - 75 - Calm - 30.33 - 10 CLR None
2018-10-18 03:55 49 39 48 67 70° 3 - 30.32 - 10 CLR None

Support USWX by starting your Amazon purchase here.